Roma, Italy

02:35 AM CET die 18o January, anno 2017 (GMT +0100)
Marino | | Change Station
Active Advisory: >>

Elev 0 ft 41.77 °N, 12.61 °E | Updated 17 seconds ago

Partly Cloudy
Partialiter Nubila
39.0 °F
Feels Like 39 °F
N
0.0
Ventus Variabilis Ventus from Magis Eurus quam Auster
Gusts 0.0 mph

Hodie
High -- | Low -- °F
--% Chance of Precip.
Yesterday
High -- | Low -- °F
Precip. -- in
Pressio 29.74 in
Visibilitas 6.2 milia passuum
Clouds Few 4000 ft
Frigus Venti 39 °F
Frigus in quo Ros apparet 35 °F
Umor 86%
Rainfall 0.00 in
Snow Depth Not available.
7:33 AM 5:07 PM
Waning Gibbous, 68% visible
METAR LIRA 180120Z 02010KT 9999 FEW040 04/01 Q1007
Pressio 29.74 in
Visibilitas 6.2 milia passuum
Clouds Few 4000 ft
Frigus Venti 39 °F
Frigus in quo Ros apparet 35 °F
Umor 86%
Rainfall 0.00 in
Snow Depth Not available.
7:33 AM 5:07 PM
Waning Gibbous, 68% visible
METAR LIRA 180120Z 02010KT 9999 FEW040 04/01 Q1007

Get Your Daily Forecast Email!

Thanks for signing up!

Be on the lookout for a verification email in your inbox.

You'll start receiving the daily forecast at 8 AM.

×

10-Day Weather Forecast

×

Almanac

Astronomy

Jan. 18, 2017 Rise Set
Actual Time
Civil Twilight
Nautical Twilight
Astronomical Twilight
Moon
Length Of Visible Light
Length of Day
Tomorrow will be .
, % of the Moon is Illuminated

Today's Extremes

Country Highs Country Lows

Community

WunderPhotos

Upload Photos

1,962,540 photos uploaded!

WunderBlog® & News

Nearby

Air Quality

  Air Quality AQ Index Pollutant
Not available.

Snow Depth

Station Depth Elevation

Earthquake Activity

City Distance Mag. Time & Date
Minimum magnitude displayed is 2.5.

Coastal Water Temperatures

Locus Calor

Stations

Nearby Weather Stations

Station Location Temp Frigus Venti Frigus in quo Ros apparet Umor Ventus Precip. Elev Renovata Type